sensor_id;sensor_type;location;lat;lon;timestamp;P1;durP1;ratioP1;P2;durP2;ratioP2
55609;SDS011;41486;52.502;13.486;2023-04-24T00:00:54;2.75;;;2.10;;
55609;SDS011;41486;52.502;13.486;2023-04-24T00:03:23;2.40;;;2.20;;
55609;SDS011;41486;52.502;13.486;2023-04-24T00:05:54;2.85;;;1.90;;
55609;SDS011;41486;52.502;13.486;2023-04-24T00:08:22;3.47;;;2.50;;
55609;SDS011;41486;52.502;13.486;2023-04-24T00:10:50;3.25;;;2.63;;
55609;SDS011;41486;52.502;13.486;2023-04-24T00:13:19;3.55;;;2.45;;
55609;SDS011;41486;52.502;13.486;2023-04-24T00:15:47;3.30;;;2.70;;
55609;SDS011;41486;52.502;13.486;2023-04-24T00:18:15;3.80;;;2.72;;
55609;SDS011;41486;52.502;13.486;2023-04-24T00:20:43;3.63;;;2.80;;
55609;SDS011;41486;52.502;13.486;2023-04-24T00:23:12;2.60;;;2.00;;
55609;SDS011;41486;52.502;13.486;2023-04-24T00:25:40;2.40;;;1.92;;
55609;SDS011;41486;52.502;13.486;2023-04-24T00:28:08;4.40;;;2.22;;
55609;SDS011;41486;52.502;13.486;2023-04-24T00:30:36;3.85;;;2.40;;
55609;SDS011;41486;52.502;13.486;2023-04-24T00:33:04;3.53;;;2.47;;
55609;SDS011;41486;52.502;13.486;2023-04-24T00:35:32;3.17;;;2.38;;
55609;SDS011;41486;52.502;13.486;2023-04-24T00:38:00;3.17;;;2.17;;
55609;SDS011;41486;52.502;13.486;2023-04-24T00:40:29;2.90;;;2.28;;
55609;SDS011;41486;52.502;13.486;2023-04-24T00:42:57;3.60;;;2.67;;
55609;SDS011;41486;52.502;13.486;2023-04-24T00:45:25;3.17;;;2.08;;
55609;SDS011;41486;52.502;13.486;2023-04-24T00:47:53;4.10;;;2.70;;
55609;SDS011;41486;52.502;13.486;2023-04-24T00:50:22;2.58;;;2.25;;
55609;SDS011;41486;52.502;13.486;2023-04-24T00:52:51;4.47;;;2.35;;
55609;SDS011;41486;52.502;13.486;2023-04-24T00:55:19;5.43;;;2.78;;
55609;SDS011;41486;52.502;13.486;2023-04-24T00:57:49;3.17;;;2.40;;
55609;SDS011;41486;52.502;13.486;2023-04-24T01:00:17;3.08;;;2.22;;
55609;SDS011;41486;52.502;13.486;2023-04-24T01:02:47;4.00;;;2.40;;
55609;SDS011;41486;52.502;13.486;2023-04-24T01:05:16;3.13;;;2.40;;
55609;SDS011;41486;52.502;13.486;2023-04-24T01:07:45;2.72;;;1.92;;
55609;SDS011;41486;52.502;13.486;2023-04-24T01:10:15;3.40;;;2.60;;
55609;SDS011;41486;52.502;13.486;2023-04-24T01:12:45;2.92;;;2.30;;
55609;SDS011;41486;52.502;13.486;2023-04-24T01:15:15;3.83;;;2.80;;
55609;SDS011;41486;52.502;13.486;2023-04-24T01:17:42;3.20;;;2.53;;
55609;SDS011;41486;52.502;13.486;2023-04-24T01:20:13;3.53;;;2.50;;
55609;SDS011;41486;52.502;13.486;2023-04-24T01:22:43;3.25;;;2.33;;
55609;SDS011;41486;52.502;13.486;2023-04-24T01:25:11;3.83;;;2.72;;
55609;SDS011;41486;52.502;13.486;2023-04-24T01:27:39;3.72;;;2.38;;
55609;SDS011;41486;52.502;13.486;2023-04-24T01:30:07;3.65;;;2.85;;
55609;SDS011;41486;52.502;13.486;2023-04-24T01:32:37;4.57;;;3.05;;
55609;SDS011;41486;52.502;13.486;2023-04-24T01:35:07;3.75;;;2.58;;
55609;SDS011;41486;52.502;13.486;2023-04-24T01:37:35;3.50;;;2.80;;
55609;SDS011;41486;52.502;13.486;2023-04-24T01:40:06;4.05;;;2.55;;
55609;SDS011;41486;52.502;13.486;2023-04-24T01:42:35;5.22;;;2.85;;
55609;SDS011;41486;52.502;13.486;2023-04-24T01:45:04;3.30;;;2.28;;
55609;SDS011;41486;52.502;13.486;2023-04-24T01:47:33;2.90;;;2.55;;
55609;SDS011;41486;52.502;13.486;2023-04-24T01:50:04;6.50;;;2.90;;
55609;SDS011;41486;52.502;13.486;2023-04-24T01:52:33;2.95;;;2.42;;
55609;SDS011;41486;52.502;13.486;2023-04-24T01:55:02;3.10;;;2.50;;
55609;SDS011;41486;52.502;13.486;2023-04-24T01:57:33;3.80;;;2.72;;
55609;SDS011;41486;52.502;13.486;2023-04-24T02:00:01;3.72;;;2.60;;
55609;SDS011;41486;52.502;13.486;2023-04-24T02:02:38;4.18;;;2.55;;
55609;SDS011;41486;52.502;13.486;2023-04-24T02:05:08;3.70;;;2.70;;
55609;SDS011;41486;52.502;13.486;2023-04-24T02:07:37;3.85;;;3.03;;
55609;SDS011;41486;52.502;13.486;2023-04-24T02:10:05;3.50;;;2.45;;
55609;SDS011;41486;52.502;13.486;2023-04-24T02:12:35;3.75;;;2.60;;
55609;SDS011;41486;52.502;13.486;2023-04-24T02:15:03;3.67;;;2.90;;
55609;SDS011;41486;52.502;13.486;2023-04-24T02:17:33;4.10;;;3.00;;
55609;SDS011;41486;52.502;13.486;2023-04-24T02:20:03;4.68;;;2.63;;
55609;SDS011;41486;52.502;13.486;2023-04-24T02:22:32;5.28;;;3.03;;
55609;SDS011;41486;52.502;13.486;2023-04-24T02:25:01;5.10;;;3.20;;
55609;SDS011;41486;52.502;13.486;2023-04-24T02:27:31;3.72;;;2.85;;
55609;SDS011;41486;52.502;13.486;2023-04-24T02:30:00;3.35;;;2.70;;
55609;SDS011;41486;52.502;13.486;2023-04-24T02:32:30;10.48;;;3.10;;
55609;SDS011;41486;52.502;13.486;2023-04-24T02:34:58;4.32;;;3.13;;
55609;SDS011;41486;52.502;13.486;2023-04-24T02:37:26;7.13;;;2.90;;
55609;SDS011;41486;52.502;13.486;2023-04-24T02:39:54;6.90;;;3.28;;
55609;SDS011;41486;52.502;13.486;2023-04-24T02:42:22;3.63;;;3.10;;
55609;SDS011;41486;52.502;13.486;2023-04-24T02:44:50;3.53;;;2.88;;
55609;SDS011;41486;52.502;13.486;2023-04-24T02:47:19;5.22;;;3.55;;
55609;SDS011;41486;52.502;13.486;2023-04-24T02:49:48;3.90;;;3.13;;
55609;SDS011;41486;52.502;13.486;2023-04-24T02:52:16;4.55;;;3.10;;
55609;SDS011;41486;52.502;13.486;2023-04-24T02:54:44;4.70;;;3.55;;
55609;SDS011;41486;52.502;13.486;2023-04-24T02:57:12;6.50;;;3.70;;
55609;SDS011;41486;52.502;13.486;2023-04-24T02:59:41;5.15;;;3.28;;
55609;SDS011;41486;52.502;13.486;2023-04-24T03:02:11;4.40;;;3.25;;
55609;SDS011;41486;52.502;13.486;2023-04-24T03:04:40;5.53;;;4.10;;
55609;SDS011;41486;52.502;13.486;2023-04-24T03:07:09;4.82;;;3.67;;
55609;SDS011;41486;52.502;13.486;2023-04-24T03:09:37;4.70;;;3.88;;
55609;SDS011;41486;52.502;13.486;2023-04-24T03:12:05;4.32;;;3.42;;
55609;SDS011;41486;52.502;13.486;2023-04-24T03:14:33;4.70;;;3.55;;
55609;SDS011;41486;52.502;13.486;2023-04-24T03:17:01;5.55;;;3.60;;
55609;SDS011;41486;52.502;13.486;2023-04-24T03:19:29;3.78;;;3.13;;
55609;SDS011;41486;52.502;13.486;2023-04-24T03:22:04;4.80;;;3.50;;
55609;SDS011;41486;52.502;13.486;2023-04-24T03:24:33;4.13;;;3.63;;
55609;SDS011;41486;52.502;13.486;2023-04-24T03:27:01;4.80;;;3.38;;
55609;SDS011;41486;52.502;13.486;2023-04-24T03:29:52;3.30;;;2.90;;
55609;SDS011;41486;52.502;13.486;2023-04-24T03:32:30;2.88;;;2.60;;
55609;SDS011;41486;52.502;13.486;2023-04-24T03:35:12;3.72;;;3.05;;
55609;SDS011;41486;52.502;13.486;2023-04-24T03:37:41;4.80;;;3.10;;
55609;SDS011;41486;52.502;13.486;2023-04-24T03:40:32;4.35;;;3.05;;
55609;SDS011;41486;52.502;13.486;2023-04-24T03:43:02;4.38;;;3.20;;
55609;SDS011;41486;52.502;13.486;2023-04-24T03:45:31;5.63;;;3.20;;
55609;SDS011;41486;52.502;13.486;2023-04-24T03:47:59;4.70;;;3.35;;
55609;SDS011;41486;52.502;13.486;2023-04-24T03:50:27;3.70;;;2.90;;
55609;SDS011;41486;52.502;13.486;2023-04-24T03:52:57;5.20;;;2.92;;
55609;SDS011;41486;52.502;13.486;2023-04-24T03:55:34;4.57;;;2.55;;
55609;SDS011;41486;52.502;13.486;2023-04-24T03:58:02;3.70;;;2.72;;
55609;SDS011;41486;52.502;13.486;2023-04-24T04:00:30;4.35;;;2.88;;
55609;SDS011;41486;52.502;13.486;2023-04-24T04:03:19;4.35;;;3.00;;
55609;SDS011;41486;52.502;13.486;2023-04-24T04:05:48;5.75;;;3.38;;
55609;SDS011;41486;52.502;13.486;2023-04-24T04:08:17;3.90;;;3.22;;
55609;SDS011;41486;52.502;13.486;2023-04-24T04:10:45;7.30;;;3.15;;
55609;SDS011;41486;52.502;13.486;2023-04-24T04:13:13;3.55;;;2.95;;
55609;SDS011;41486;52.502;13.486;2023-04-24T04:15:41;3.65;;;3.15;;
55609;SDS011;41486;52.502;13.486;2023-04-24T04:18:09;4.40;;;3.17;;
55609;SDS011;41486;52.502;13.486;2023-04-24T04:20:38;3.88;;;2.90;;
55609;SDS011;41486;52.502;13.486;2023-04-24T04:23:06;4.45;;;3.35;;
55609;SDS011;41486;52.502;13.486;2023-04-24T04:25:48;5.15;;;3.00;;
55609;SDS011;41486;52.502;13.486;2023-04-24T04:28:21;5.70;;;3.03;;
55609;SDS011;41486;52.502;13.486;2023-04-24T04:30:51;4.18;;;2.83;;
55609;SDS011;41486;52.502;13.486;2023-04-24T04:33:20;3.13;;;2.80;;
55609;SDS011;41486;52.502;13.486;2023-04-24T04:35:48;4.45;;;3.00;;
55609;SDS011;41486;52.502;13.486;2023-04-24T04:38:19;3.78;;;2.92;;
55609;SDS011;41486;52.502;13.486;2023-04-24T04:41:04;3.90;;;3.00;;
55609;SDS011;41486;52.502;13.486;2023-04-24T04:43:32;3.92;;;3.03;;
55609;SDS011;41486;52.502;13.486;2023-04-24T04:46:01;4.32;;;3.08;;
55609;SDS011;41486;52.502;13.486;2023-04-24T04:48:30;4.70;;;2.55;;
55609;SDS011;41486;52.502;13.486;2023-04-24T04:51:00;3.88;;;3.17;;
55609;SDS011;41486;52.502;13.486;2023-04-24T04:53:28;5.45;;;4.28;;
55609;SDS011;41486;52.502;13.486;2023-04-24T04:55:56;5.18;;;3.40;;
55609;SDS011;41486;52.502;13.486;2023-04-24T04:58:33;4.10;;;2.85;;
55609;SDS011;41486;52.502;13.486;2023-04-24T05:01:02;3.40;;;2.80;;
55609;SDS011;41486;52.502;13.486;2023-04-24T05:03:36;4.30;;;2.83;;
55609;SDS011;41486;52.502;13.486;2023-04-24T05:06:08;3.75;;;2.47;;
55609;SDS011;41486;52.502;13.486;2023-04-24T05:08:39;4.10;;;2.75;;
55609;SDS011;41486;52.502;13.486;2023-04-24T05:11:11;3.88;;;2.75;;
55609;SDS011;41486;52.502;13.486;2023-04-24T05:13:41;6.25;;;2.95;;
55609;SDS011;41486;52.502;13.486;2023-04-24T05:16:23;3.97;;;2.67;;
55609;SDS011;41486;52.502;13.486;2023-04-24T05:18:53;2.47;;;2.22;;
55609;SDS011;41486;52.502;13.486;2023-04-24T05:21:27;3.08;;;2.50;;
55609;SDS011;41486;52.502;13.486;2023-04-24T05:23:55;3.75;;;2.13;;
55609;SDS011;41486;52.502;13.486;2023-04-24T05:26:39;3.10;;;2.40;;
55609;SDS011;41486;52.502;13.486;2023-04-24T05:29:09;3.50;;;2.55;;
55609;SDS011;41486;52.502;13.486;2023-04-24T05:31:38;6.82;;;3.30;;
55609;SDS011;41486;52.502;13.486;2023-04-24T05:34:07;3.97;;;2.53;;
55609;SDS011;41486;52.502;13.486;2023-04-24T05:36:39;3.72;;;2.60;;
55609;SDS011;41486;52.502;13.486;2023-04-24T05:39:08;4.22;;;2.40;;
55609;SDS011;41486;52.502;13.486;2023-04-24T05:41:36;5.03;;;3.10;;
55609;SDS011;41486;52.502;13.486;2023-04-24T05:44:04;4.93;;;2.30;;
55609;SDS011;41486;52.502;13.486;2023-04-24T05:46:33;2.53;;;1.98;;
55609;SDS011;41486;52.502;13.486;2023-04-24T05:49:02;7.30;;;2.10;;
55609;SDS011;41486;52.502;13.486;2023-04-24T05:51:32;3.45;;;2.15;;
55609;SDS011;41486;52.502;13.486;2023-04-24T05:54:00;3.85;;;2.33;;
55609;SDS011;41486;52.502;13.486;2023-04-24T05:56:30;4.78;;;2.40;;
55609;SDS011;41486;52.502;13.486;2023-04-24T05:59:00;2.25;;;1.70;;
55609;SDS011;41486;52.502;13.486;2023-04-24T06:01:29;3.05;;;2.13;;
55609;SDS011;41486;52.502;13.486;2023-04-24T06:04:07;3.53;;;2.00;;
55609;SDS011;41486;52.502;13.486;2023-04-24T06:06:35;2.55;;;1.40;;
55609;SDS011;41486;52.502;13.486;2023-04-24T06:09:03;3.17;;;1.63;;
55609;SDS011;41486;52.502;13.486;2023-04-24T06:11:31;1.40;;;1.13;;
55609;SDS011;41486;52.502;13.486;2023-04-24T06:13:59;1.38;;;1.27;;
55609;SDS011;41486;52.502;13.486;2023-04-24T06:16:36;3.55;;;1.50;;
55609;SDS011;41486;52.502;13.486;2023-04-24T06:19:17;1.67;;;1.20;;
55609;SDS011;41486;52.502;13.486;2023-04-24T06:21:46;1.63;;;1.35;;
55609;SDS011;41486;52.502;13.486;2023-04-24T06:24:14;2.30;;;1.20;;
55609;SDS011;41486;52.502;13.486;2023-04-24T06:26:43;2.33;;;1.42;;
55609;SDS011;41486;52.502;13.486;2023-04-24T06:29:11;2.30;;;1.50;;
55609;SDS011;41486;52.502;13.486;2023-04-24T06:31:39;5.28;;;1.20;;
55609;SDS011;41486;52.502;13.486;2023-04-24T06:34:07;1.63;;;1.25;;
55609;SDS011;41486;52.502;13.486;2023-04-24T06:36:36;2.63;;;1.10;;
55609;SDS011;41486;52.502;13.486;2023-04-24T06:39:04;1.58;;;1.00;;
55609;SDS011;41486;52.502;13.486;2023-04-24T06:41:33;1.30;;;0.77;;
55609;SDS011;41486;52.502;13.486;2023-04-24T06:44:01;1.88;;;1.40;;
55609;SDS011;41486;52.502;13.486;2023-04-24T06:46:29;3.53;;;1.40;;
55609;SDS011;41486;52.502;13.486;2023-04-24T06:48:57;3.30;;;1.60;;
55609;SDS011;41486;52.502;13.486;2023-04-24T06:51:26;1.70;;;1.45;;
55609;SDS011;41486;52.502;13.486;2023-04-24T06:53:55;3.58;;;2.13;;
55609;SDS011;41486;52.502;13.486;2023-04-24T06:56:23;1.88;;;1.10;;
55609;SDS011;41486;52.502;13.486;2023-04-24T06:58:51;1.27;;;0.98;;
55609;SDS011;41486;52.502;13.486;2023-04-24T07:01:19;2.05;;;0.95;;
55609;SDS011;41486;52.502;13.486;2023-04-24T07:03:47;1.02;;;0.80;;
55609;SDS011;41486;52.502;13.486;2023-04-24T07:06:16;1.88;;;1.08;;
55609;SDS011;41486;52.502;13.486;2023-04-24T07:08:47;1.08;;;0.90;;
55609;SDS011;41486;52.502;13.486;2023-04-24T07:11:17;1.27;;;0.95;;
55609;SDS011;41486;52.502;13.486;2023-04-24T07:13:46;1.88;;;0.90;;
55609;SDS011;41486;52.502;13.486;2023-04-24T07:16:14;3.28;;;0.90;;
55609;SDS011;41486;52.502;13.486;2023-04-24T07:18:42;1.35;;;1.08;;
55609;SDS011;41486;52.502;13.486;2023-04-24T07:21:10;0.98;;;0.77;;
55609;SDS011;41486;52.502;13.486;2023-04-24T07:23:38;0.98;;;0.73;;
55609;SDS011;41486;52.502;13.486;2023-04-24T07:26:07;1.17;;;0.82;;
55609;SDS011;41486;52.502;13.486;2023-04-24T07:28:37;1.13;;;0.75;;
55609;SDS011;41486;52.502;13.486;2023-04-24T07:31:05;0.70;;;0.70;;
55609;SDS011;41486;52.502;13.486;2023-04-24T07:33:33;1.77;;;1.08;;
55609;SDS011;41486;52.502;13.486;2023-04-24T07:36:02;1.17;;;0.70;;
55609;SDS011;41486;52.502;13.486;2023-04-24T07:38:31;1.20;;;1.00;;
55609;SDS011;41486;52.502;13.486;2023-04-24T07:40:59;0.95;;;0.80;;
55609;SDS011;41486;52.502;13.486;2023-04-24T07:43:27;0.80;;;0.70;;
55609;SDS011;41486;52.502;13.486;2023-04-24T07:45:57;1.02;;;0.80;;
55609;SDS011;41486;52.502;13.486;2023-04-24T07:48:25;1.00;;;0.90;;
55609;SDS011;41486;52.502;13.486;2023-04-24T07:50:56;1.60;;;0.60;;
55609;SDS011;41486;52.502;13.486;2023-04-24T07:53:24;1.15;;;0.70;;
55609;SDS011;41486;52.502;13.486;2023-04-24T07:55:53;1.08;;;0.55;;
55609;SDS011;41486;52.502;13.486;2023-04-24T07:58:21;0.30;;;0.30;;
55609;SDS011;41486;52.502;13.486;2023-04-24T08:00:50;0.68;;;0.55;;
55609;SDS011;41486;52.502;13.486;2023-04-24T08:03:19;1.05;;;0.73;;
55609;SDS011;41486;52.502;13.486;2023-04-24T08:05:48;0.63;;;0.52;;
55609;SDS011;41486;52.502;13.486;2023-04-24T08:08:18;1.83;;;0.50;;
55609;SDS011;41486;52.502;13.486;2023-04-24T08:10:49;0.60;;;0.55;;
55609;SDS011;41486;52.502;13.486;2023-04-24T08:13:17;1.60;;;0.47;;
55609;SDS011;41486;52.502;13.486;2023-04-24T08:15:46;0.45;;;0.40;;
55609;SDS011;41486;52.502;13.486;2023-04-24T08:18:14;1.55;;;0.55;;
55609;SDS011;41486;52.502;13.486;2023-04-24T08:20:43;0.47;;;0.47;;
55609;SDS011;41486;52.502;13.486;2023-04-24T08:23:12;0.93;;;0.50;;
55609;SDS011;41486;52.502;13.486;2023-04-24T08:25:40;0.63;;;0.63;;
55609;SDS011;41486;52.502;13.486;2023-04-24T08:28:08;0.50;;;0.50;;
55609;SDS011;41486;52.502;13.486;2023-04-24T08:30:37;1.15;;;0.50;;
55609;SDS011;41486;52.502;13.486;2023-04-24T08:33:05;1.00;;;0.57;;
55609;SDS011;41486;52.502;13.486;2023-04-24T08:35:33;0.50;;;0.50;;
55609;SDS011;41486;52.502;13.486;2023-04-24T08:38:03;2.05;;;0.65;;
55609;SDS011;41486;52.502;13.486;2023-04-24T08:40:31;0.60;;;0.60;;
55609;SDS011;41486;52.502;13.486;2023-04-24T08:43:01;0.90;;;0.70;;
55609;SDS011;41486;52.502;13.486;2023-04-24T08:45:31;2.00;;;0.60;;
55609;SDS011;41486;52.502;13.486;2023-04-24T08:48:03;0.85;;;0.50;;
55609;SDS011;41486;52.502;13.486;2023-04-24T08:50:42;0.95;;;0.80;;
55609;SDS011;41486;52.502;13.486;2023-04-24T08:53:12;0.63;;;0.50;;
55609;SDS011;41486;52.502;13.486;2023-04-24T08:55:40;1.17;;;0.52;;
55609;SDS011;41486;52.502;13.486;2023-04-24T08:58:10;0.40;;;0.38;;
55609;SDS011;41486;52.502;13.486;2023-04-24T09:00:39;1.20;;;0.50;;
55609;SDS011;41486;52.502;13.486;2023-04-24T09:03:13;0.88;;;0.40;;
55609;SDS011;41486;52.502;13.486;2023-04-24T09:05:44;0.75;;;0.63;;
55609;SDS011;41486;52.502;13.486;2023-04-24T09:08:16;0.65;;;0.52;;
55609;SDS011;41486;52.502;13.486;2023-04-24T09:10:46;0.50;;;0.40;;
55609;SDS011;41486;52.502;13.486;2023-04-24T09:13:16;0.40;;;0.40;;
55609;SDS011;41486;52.502;13.486;2023-04-24T09:15:46;0.68;;;0.57;;
55609;SDS011;41486;52.502;13.486;2023-04-24T09:18:14;0.35;;;0.30;;
55609;SDS011;41486;52.502;13.486;2023-04-24T09:20:58;1.77;;;0.45;;
55609;SDS011;41486;52.502;13.486;2023-04-24T09:23:29;1.08;;;0.50;;
55609;SDS011;41486;52.502;13.486;2023-04-24T09:25:59;0.73;;;0.55;;
55609;SDS011;41486;52.502;13.486;2023-04-24T09:28:29;0.50;;;0.50;;
55609;SDS011;41486;52.502;13.486;2023-04-24T09:31:05;0.43;;;0.40;;
55609;SDS011;41486;52.502;13.486;2023-04-24T09:33:35;3.85;;;0.85;;
55609;SDS011;41486;52.502;13.486;2023-04-24T09:36:03;0.55;;;0.40;;
55609;SDS011;41486;52.502;13.486;2023-04-24T09:38:34;1.15;;;0.70;;
55609;SDS011;41486;52.502;13.486;2023-04-24T09:41:04;0.77;;;0.65;;
55609;SDS011;41486;52.502;13.486;2023-04-24T09:43:34;0.50;;;0.50;;
55609;SDS011;41486;52.502;13.486;2023-04-24T09:46:04;1.25;;;0.90;;
55609;SDS011;41486;52.502;13.486;2023-04-24T09:48:34;1.33;;;0.60;;
55609;SDS011;41486;52.502;13.486;2023-04-24T09:51:05;2.85;;;0.68;;
55609;SDS011;41486;52.502;13.486;2023-04-24T09:53:38;1.88;;;0.80;;
55609;SDS011;41486;52.502;13.486;2023-04-24T09:56:11;2.38;;;0.70;;
55609;SDS011;41486;52.502;13.486;2023-04-24T09:58:39;0.60;;;0.60;;
55609;SDS011;41486;52.502;13.486;2023-04-24T10:01:07;1.17;;;0.70;;
55609;SDS011;41486;52.502;13.486;2023-04-24T10:03:35;3.35;;;1.02;;
55609;SDS011;41486;52.502;13.486;2023-04-24T10:06:03;1.83;;;0.75;;
55609;SDS011;41486;52.502;13.486;2023-04-24T10:08:36;0.68;;;0.60;;
55609;SDS011;41486;52.502;13.486;2023-04-24T10:11:05;3.55;;;0.77;;
55609;SDS011;41486;52.502;13.486;2023-04-24T10:13:34;1.90;;;1.10;;
55609;SDS011;41486;52.502;13.486;2023-04-24T10:16:03;0.63;;;0.50;;
55609;SDS011;41486;52.502;13.486;2023-04-24T10:18:35;2.45;;;1.30;;
55609;SDS011;41486;52.502;13.486;2023-04-24T10:21:03;1.00;;;0.80;;
55609;SDS011;41486;52.502;13.486;2023-04-24T10:23:32;0.63;;;0.50;;
55609;SDS011;41486;52.502;13.486;2023-04-24T10:26:02;1.00;;;0.80;;
55609;SDS011;41486;52.502;13.486;2023-04-24T10:28:30;0.68;;;0.60;;
55609;SDS011;41486;52.502;13.486;2023-04-24T10:31:00;1.73;;;0.50;;
55609;SDS011;41486;52.502;13.486;2023-04-24T10:33:29;0.85;;;0.40;;
55609;SDS011;41486;52.502;13.486;2023-04-24T10:35:58;0.80;;;0.52;;
55609;SDS011;41486;52.502;13.486;2023-04-24T10:38:27;1.55;;;0.40;;
55609;SDS011;41486;52.502;13.486;2023-04-24T10:40:57;2.25;;;0.60;;
55609;SDS011;41486;52.502;13.486;2023-04-24T10:43:36;0.20;;;0.20;;
55609;SDS011;41486;52.502;13.486;2023-04-24T10:46:04;0.65;;;0.38;;
55609;SDS011;41486;52.502;13.486;2023-04-24T10:48:33;0.50;;;0.50;;
55609;SDS011;41486;52.502;13.486;2023-04-24T10:51:02;1.85;;;0.50;;
55609;SDS011;41486;52.502;13.486;2023-04-24T10:53:30;1.10;;;0.60;;
55609;SDS011;41486;52.502;13.486;2023-04-24T10:55:59;3.33;;;1.73;;
55609;SDS011;41486;52.502;13.486;2023-04-24T10:58:36;0.88;;;0.55;;
55609;SDS011;41486;52.502;13.486;2023-04-24T11:01:07;0.80;;;0.60;;
55609;SDS011;41486;52.502;13.486;2023-04-24T11:03:35;1.65;;;0.55;;
55609;SDS011;41486;52.502;13.486;2023-04-24T11:06:04;0.50;;;0.50;;
55609;SDS011;41486;52.502;13.486;2023-04-24T11:08:37;1.17;;;0.70;;
55609;SDS011;41486;52.502;13.486;2023-04-24T11:11:10;5.10;;;3.50;;
55609;SDS011;41486;52.502;13.486;2023-04-24T11:16:35;5.32;;;3.85;;
55609;SDS011;41486;52.502;13.486;2023-04-24T11:19:07;0.68;;;0.63;;
55609;SDS011;41486;52.502;13.486;2023-04-24T11:21:41;0.65;;;0.50;;
55609;SDS011;41486;52.502;13.486;2023-04-24T11:24:26;0.73;;;0.60;;
55609;SDS011;41486;52.502;13.486;2023-04-24T11:27:00;1.92;;;0.80;;
55609;SDS011;41486;52.502;13.486;2023-04-24T11:29:47;2.00;;;0.77;;
55609;SDS011;41486;52.502;13.486;2023-04-24T11:32:17;0.52;;;0.52;;
55609;SDS011;41486;52.502;13.486;2023-04-24T11:34:51;1.35;;;0.63;;
55609;SDS011;41486;52.502;13.486;2023-04-24T11:37:21;2.13;;;1.30;;
55609;SDS011;41486;52.502;13.486;2023-04-24T11:39:51;2.75;;;1.08;;
55609;SDS011;41486;52.502;13.486;2023-04-24T11:42:21;1.83;;;0.70;;
55609;SDS011;41486;52.502;13.486;2023-04-24T11:44:53;0.90;;;0.80;;
55609;SDS011;41486;52.502;13.486;2023-04-24T11:47:28;2.28;;;0.90;;
55609;SDS011;41486;52.502;13.486;2023-04-24T11:49:57;1.77;;;1.08;;
55609;SDS011;41486;52.502;13.486;2023-04-24T11:52:27;1.15;;;0.90;;
55609;SDS011;41486;52.502;13.486;2023-04-24T11:54:56;1.35;;;1.20;;
55609;SDS011;41486;52.502;13.486;2023-04-24T11:57:25;1.00;;;0.90;;
55609;SDS011;41486;52.502;13.486;2023-04-24T11:59:56;1.50;;;1.10;;
55609;SDS011;41486;52.502;13.486;2023-04-24T12:02:26;1.23;;;1.00;;
55609;SDS011;41486;52.502;13.486;2023-04-24T12:04:55;2.33;;;0.90;;
55609;SDS011;41486;52.502;13.486;2023-04-24T12:07:24;2.95;;;1.00;;
55609;SDS011;41486;52.502;13.486;2023-04-24T12:09:55;0.75;;;0.70;;
55609;SDS011;41486;52.502;13.486;2023-04-24T12:12:26;1.17;;;0.90;;
55609;SDS011;41486;52.502;13.486;2023-04-24T12:14:57;1.25;;;0.73;;
55609;SDS011;41486;52.502;13.486;2023-04-24T12:17:27;0.90;;;0.80;;
55609;SDS011;41486;52.502;13.486;2023-04-24T12:19:57;0.80;;;0.70;;
55609;SDS011;41486;52.502;13.486;2023-04-24T12:22:27;0.77;;;0.70;;
55609;SDS011;41486;52.502;13.486;2023-04-24T12:24:56;0.50;;;0.50;;
55609;SDS011;41486;52.502;13.486;2023-04-24T12:27:29;0.55;;;0.55;;
55609;SDS011;41486;52.502;13.486;2023-04-24T12:30:03;0.63;;;0.63;;
55609;SDS011;41486;52.502;13.486;2023-04-24T12:32:33;0.82;;;0.70;;
55609;SDS011;41486;52.502;13.486;2023-04-24T12:35:03;0.50;;;0.50;;
55609;SDS011;41486;52.502;13.486;2023-04-24T12:37:33;0.50;;;0.50;;
55609;SDS011;41486;52.502;13.486;2023-04-24T12:40:06;2.60;;;0.50;;
55609;SDS011;41486;52.502;13.486;2023-04-24T12:42:41;0.45;;;0.45;;
55609;SDS011;41486;52.502;13.486;2023-04-24T12:45:11;0.88;;;0.50;;
55609;SDS011;41486;52.502;13.486;2023-04-24T12:47:41;0.75;;;0.60;;
55609;SDS011;41486;52.502;13.486;2023-04-24T12:50:10;1.13;;;0.60;;
55609;SDS011;41486;52.502;13.486;2023-04-24T12:52:40;0.52;;;0.52;;
55609;SDS011;41486;52.502;13.486;2023-04-24T12:55:09;1.02;;;0.52;;
55609;SDS011;41486;52.502;13.486;2023-04-24T12:57:39;0.47;;;0.47;;
55609;SDS011;41486;52.502;13.486;2023-04-24T13:00:08;0.55;;;0.40;;
55609;SDS011;41486;52.502;13.486;2023-04-24T13:02:38;0.40;;;0.32;;
55609;SDS011;41486;52.502;13.486;2023-04-24T13:05:07;0.68;;;0.63;;
55609;SDS011;41486;52.502;13.486;2023-04-24T13:07:38;1.08;;;0.50;;
55609;SDS011;41486;52.502;13.486;2023-04-24T13:10:06;0.95;;;0.50;;
55609;SDS011;41486;52.502;13.486;2023-04-24T13:12:35;2.42;;;1.30;;
55609;SDS011;41486;52.502;13.486;2023-04-24T13:15:04;0.50;;;0.40;;
55609;SDS011;41486;52.502;13.486;2023-04-24T13:17:33;1.42;;;0.57;;
55609;SDS011;41486;52.502;13.486;2023-04-24T13:20:04;1.55;;;0.47;;
55609;SDS011;41486;52.502;13.486;2023-04-24T13:22:32;0.63;;;0.50;;
55609;SDS011;41486;52.502;13.486;2023-04-24T13:25:01;0.40;;;0.40;;
55609;SDS011;41486;52.502;13.486;2023-04-24T13:27:30;3.67;;;0.50;;
55609;SDS011;41486;52.502;13.486;2023-04-24T13:29:58;1.15;;;0.55;;
55609;SDS011;41486;52.502;13.486;2023-04-24T13:32:26;0.60;;;0.40;;
55609;SDS011;41486;52.502;13.486;2023-04-24T13:34:56;0.50;;;0.50;;
55609;SDS011;41486;52.502;13.486;2023-04-24T13:37:25;0.77;;;0.70;;
55609;SDS011;41486;52.502;13.486;2023-04-24T13:39:53;4.07;;;0.50;;
55609;SDS011;41486;52.502;13.486;2023-04-24T13:42:21;0.63;;;0.50;;
55609;SDS011;41486;52.502;13.486;2023-04-24T13:44:49;0.40;;;0.32;;
55609;SDS011;41486;52.502;13.486;2023-04-24T13:47:18;1.25;;;0.40;;
55609;SDS011;41486;52.502;13.486;2023-04-24T13:49:46;0.60;;;0.30;;
55609;SDS011;41486;52.502;13.486;2023-04-24T13:52:14;0.30;;;0.30;;
55609;SDS011;41486;52.502;13.486;2023-04-24T13:54:44;0.65;;;0.50;;
55609;SDS011;41486;52.502;13.486;2023-04-24T13:57:13;0.50;;;0.40;;
55609;SDS011;41486;52.502;13.486;2023-04-24T13:59:42;0.40;;;0.40;;
55609;SDS011;41486;52.502;13.486;2023-04-24T14:02:10;0.60;;;0.45;;
55609;SDS011;41486;52.502;13.486;2023-04-24T14:04:38;3.85;;;0.80;;
55609;SDS011;41486;52.502;13.486;2023-04-24T14:07:06;3.83;;;1.17;;
55609;SDS011;41486;52.502;13.486;2023-04-24T14:09:35;0.68;;;0.55;;
55609;SDS011;41486;52.502;13.486;2023-04-24T14:12:04;1.45;;;0.40;;
55609;SDS011;41486;52.502;13.486;2023-04-24T14:14:33;1.25;;;0.73;;
55609;SDS011;41486;52.502;13.486;2023-04-24T14:17:01;0.65;;;0.50;;
55609;SDS011;41486;52.502;13.486;2023-04-24T14:19:29;0.63;;;0.50;;
55609;SDS011;41486;52.502;13.486;2023-04-24T14:21:58;2.28;;;0.50;;
55609;SDS011;41486;52.502;13.486;2023-04-24T14:24:26;0.73;;;0.52;;
55609;SDS011;41486;52.502;13.486;2023-04-24T14:26:54;1.00;;;0.68;;
55609;SDS011;41486;52.502;13.486;2023-04-24T14:29:24;0.63;;;0.52;;
55609;SDS011;41486;52.502;13.486;2023-04-24T14:31:53;0.73;;;0.50;;
55609;SDS011;41486;52.502;13.486;2023-04-24T14:34:21;0.40;;;0.40;;
55609;SDS011;41486;52.502;13.486;2023-04-24T14:36:50;1.75;;;0.50;;
55609;SDS011;41486;52.502;13.486;2023-04-24T14:39:18;0.70;;;0.40;;
55609;SDS011;41486;52.502;13.486;2023-04-24T14:41:47;0.50;;;0.50;;
55609;SDS011;41486;52.502;13.486;2023-04-24T14:44:15;2.10;;;0.70;;
55609;SDS011;41486;52.502;13.486;2023-04-24T14:46:44;0.60;;;0.50;;
55609;SDS011;41486;52.502;13.486;2023-04-24T14:49:13;0.80;;;0.68;;
55609;SDS011;41486;52.502;13.486;2023-04-24T14:51:41;1.40;;;0.57;;